createdAt,value
2018-09-03T00:02:07.695Z,24.00
2018-09-03T00:04:37.727Z,25.50
2018-09-03T00:07:08.140Z,25.40
2018-09-03T00:09:42.794Z,27.57
2018-09-03T00:12:13.313Z,24.77
2018-09-03T00:14:43.511Z,24.30
2018-09-03T00:17:14.156Z,24.17
2018-09-03T00:19:44.906Z,25.67
2018-09-03T00:22:15.446Z,24.03
2018-09-03T00:24:45.549Z,26.63
2018-09-03T00:27:15.656Z,23.50
2018-09-03T00:29:46.348Z,25.27
2018-09-03T00:32:21.937Z,28.00
2018-09-03T00:34:57.120Z,25.80
2018-09-03T00:37:32.765Z,24.83
2018-09-03T00:40:07.848Z,27.07
2018-09-03T00:42:42.931Z,28.37
2018-09-03T00:45:18.223Z,27.33
2018-09-03T00:47:49.040Z,27.40
2018-09-03T00:50:19.101Z,29.43
2018-09-03T00:52:49.734Z,27.83
2018-09-03T00:55:20.974Z,28.37
2018-09-03T00:57:51.048Z,26.17
2018-09-03T01:00:21.193Z,28.97
2018-09-03T01:02:51.418Z,28.43
2018-09-03T01:05:22.051Z,29.80
2018-09-03T01:07:52.977Z,29.97
2018-09-03T01:10:23.467Z,29.63
2018-09-03T01:12:54.166Z,28.60
2018-09-03T01:15:24.544Z,28.30
2018-09-03T01:17:55.159Z,29.57
2018-09-03T01:20:25.811Z,30.10
2018-09-03T01:22:56.796Z,31.03
2018-09-03T01:25:27.412Z,30.30
2018-09-03T01:27:58.776Z,28.20
2018-09-03T01:30:30.052Z,27.90
2018-09-03T01:33:00.662Z,26.47
2018-09-03T01:35:30.615Z,26.43
2018-09-03T01:38:00.950Z,25.80
2018-09-03T01:40:31.032Z,26.60
2018-09-03T01:43:01.886Z,24.80
2018-09-03T01:45:31.921Z,24.90
2018-09-03T01:48:01.959Z,24.40
2018-09-03T01:50:32.504Z,27.13
2018-09-03T01:53:02.608Z,24.87
2018-09-03T01:55:33.110Z,24.83
2018-09-03T01:58:03.479Z,25.73
2018-09-03T02:00:33.617Z,24.60
2018-09-03T02:03:04.249Z,25.33
2018-09-03T02:05:34.591Z,25.07
2018-09-03T02:08:05.022Z,25.23
2018-09-03T02:10:35.140Z,26.00
2018-09-03T02:13:05.212Z,24.17
2018-09-03T02:15:35.852Z,25.13
2018-09-03T02:18:06.029Z,27.20
2018-09-03T02:20:36.416Z,27.53
2018-09-03T02:23:07.300Z,29.00
2018-09-03T02:25:37.804Z,29.83
2018-09-03T02:28:07.981Z,25.30
2018-09-03T02:30:38.470Z,31.03
2018-09-03T02:33:08.677Z,29.77
2018-09-03T02:35:38.774Z,29.83
2018-09-03T02:38:09.399Z,28.20
2018-09-03T02:40:39.524Z,27.10
2018-09-03T02:43:10.032Z,29.77
2018-09-03T02:45:40.687Z,29.33
2018-09-03T02:48:11.801Z,28.27
2018-09-03T02:50:42.478Z,28.43
2018-09-03T02:53:12.721Z,27.90
2018-09-03T02:55:43.231Z,27.07
2018-09-03T02:58:13.880Z,29.33
2018-09-03T03:00:44.447Z,28.73
2018-09-03T03:03:14.490Z,29.90
2018-09-03T03:05:44.523Z,27.53
2018-09-03T03:08:14.731Z,27.40
2018-09-03T03:10:44.820Z,29.17
2018-09-03T03:13:15.576Z,28.10
2018-09-03T03:15:46.294Z,30.07
2018-09-03T03:18:17.304Z,26.63
2018-09-03T03:20:47.401Z,29.63
2018-09-03T03:23:17.721Z,27.80
2018-09-03T03:25:48.050Z,28.37
2018-09-03T03:28:19.054Z,29.50
2018-09-03T03:30:49.574Z,28.23
2018-09-03T03:33:19.651Z,25.40
2018-09-03T03:35:50.235Z,26.47
2018-09-03T03:38:20.416Z,26.13
2018-09-03T03:40:50.485Z,28.53
2018-09-03T03:43:20.441Z,28.67
2018-09-03T03:45:51.133Z,27.17
2018-09-03T03:48:21.553Z,27.67
2018-09-03T03:50:52.082Z,28.90
2018-09-03T03:53:22.457Z,28.87
2018-09-03T03:55:53.117Z,28.40
2018-09-03T03:58:23.962Z,29.50
2018-09-03T04:00:54.952Z,30.47
2018-09-03T04:03:25.510Z,30.17
2018-09-03T04:05:55.529Z,32.23
2018-09-03T04:08:25.549Z,28.57
2018-09-03T04:10:55.720Z,26.43
2018-09-03T04:13:25.890Z,26.23
2018-09-03T04:15:56.306Z,27.43
2018-09-03T04:18:26.406Z,25.10
2018-09-03T04:20:57.101Z,26.30
2018-09-03T04:23:27.848Z,26.50
2018-09-03T04:25:57.772Z,26.40
2018-09-03T04:28:28.146Z,26.20
2018-09-03T04:30:58.750Z,24.50
2018-09-03T04:33:28.854Z,24.73
2018-09-03T04:35:59.418Z,26.53
2018-09-03T04:38:30.413Z,26.13
2018-09-03T04:41:00.934Z,27.03
2018-09-03T04:43:31.759Z,26.73
2018-09-03T04:46:02.497Z,26.93
2018-09-03T04:48:32.914Z,25.93
2018-09-03T04:51:03.108Z,26.00
2018-09-03T04:53:33.567Z,27.13
2018-09-03T04:56:04.453Z,26.60
2018-09-03T04:58:35.432Z,24.17
2018-09-03T05:01:05.949Z,24.17
2018-09-03T05:03:37.241Z,29.03
2018-09-03T05:06:07.484Z,24.93
2018-09-03T05:08:37.927Z,23.93
2018-09-03T05:11:07.945Z,26.50
2018-09-03T05:13:38.404Z,24.23
2018-09-03T05:16:09.718Z,24.83
2018-09-03T05:18:40.660Z,22.13
2018-09-03T05:21:10.739Z,25.33
2018-09-03T05:23:41.390Z,23.13
2018-09-03T05:26:11.568Z,23.80
2018-09-03T05:28:42.199Z,27.17
2018-09-03T05:31:12.826Z,24.87
2018-09-03T05:33:43.898Z,25.23
2018-09-03T05:36:14.556Z,25.27
2018-09-03T05:38:45.592Z,25.50
2018-09-03T05:41:16.046Z,25.37
2018-09-03T05:43:46.200Z,25.47
2018-09-03T05:46:16.310Z,24.27
2018-09-03T05:48:47.353Z,26.77
2018-09-03T05:51:18.170Z,24.30
2018-09-03T05:53:48.212Z,24.93
2018-09-03T05:56:18.840Z,24.07
2018-09-03T05:58:49.521Z,27.17
2018-09-03T06:01:19.681Z,24.23
2018-09-03T06:03:49.868Z,25.17
2018-09-03T06:06:19.981Z,23.93
2018-09-03T06:08:50.464Z,24.20
2018-09-03T06:11:21.048Z,23.27
2018-09-03T06:13:51.801Z,24.47
2018-09-03T06:16:22.746Z,23.23
2018-09-03T06:18:53.367Z,20.57
2018-09-03T06:21:24.316Z,22.97
2018-09-03T06:23:54.429Z,21.07
2018-09-03T06:26:25.396Z,20.33
2018-09-03T06:28:55.936Z,25.50
2018-09-03T06:31:25.973Z,23.50
2018-09-03T06:33:56.105Z,23.20
2018-09-03T06:36:26.230Z,23.20
2018-09-03T06:38:56.340Z,20.50
2018-09-03T06:41:26.998Z,21.07
2018-09-03T06:43:57.949Z,21.87
2018-09-03T06:46:27.989Z,20.73
2018-09-03T06:48:58.496Z,21.93
2018-09-03T06:51:28.633Z,20.93
2018-09-03T06:53:59.708Z,24.80
2018-09-03T06:56:29.865Z,20.33
2018-09-03T06:58:59.989Z,20.37
2018-09-03T07:01:30.877Z,20.57
2018-09-03T07:04:01.673Z,19.80
2018-09-03T07:06:32.027Z,21.13
2018-09-03T07:09:01.991Z,19.63
2018-09-03T07:11:32.388Z,21.57
2018-09-03T07:14:02.974Z,20.90
2018-09-03T07:16:33.146Z,21.20
2018-09-03T07:19:03.221Z,21.77
2018-09-03T07:21:33.860Z,21.40
2018-09-03T07:24:04.380Z,19.47
2018-09-03T07:26:35.630Z,20.80
2018-09-03T07:29:05.825Z,18.47
2018-09-03T07:31:36.292Z,19.93
2018-09-03T07:34:06.631Z,20.63
2018-09-03T07:36:36.862Z,18.77
2018-09-03T07:39:09.605Z,19.67
2018-09-03T07:41:40.346Z,17.70
2018-09-03T07:44:10.915Z,18.63
2018-09-03T07:46:41.736Z,18.83
2018-09-03T07:49:12.257Z,16.87
2018-09-03T07:51:42.357Z,16.33
2018-09-03T07:54:12.349Z,17.00
2018-09-03T07:56:42.758Z,16.60
2018-09-03T07:59:12.903Z,15.60
2018-09-03T08:01:43.068Z,16.13
2018-09-03T08:04:13.699Z,15.30
2018-09-03T08:06:44.468Z,15.63
2018-09-03T08:09:14.995Z,16.07
2018-09-03T08:11:45.109Z,15.33
2018-09-03T08:14:15.260Z,15.60
2018-09-03T08:16:45.622Z,13.97
2018-09-03T08:19:17.406Z,13.07
2018-09-03T08:21:47.513Z,19.23
2018-09-03T08:24:17.488Z,15.73
2018-09-03T08:26:47.598Z,13.30
2018-09-03T08:29:17.879Z,14.70
2018-09-03T08:31:48.058Z,13.73
2018-09-03T08:34:18.609Z,16.50
2018-09-03T08:36:48.598Z,15.37
2018-09-03T08:39:18.677Z,14.77
2018-09-03T08:41:49.175Z,17.13
2018-09-03T08:44:19.275Z,19.63
2018-09-03T08:46:49.346Z,16.33
2018-09-03T08:49:19.870Z,17.23
2018-09-03T08:51:50.683Z,16.73
2018-09-03T08:54:20.806Z,18.67
2018-09-03T08:56:51.322Z,17.70
2018-09-03T08:59:22.596Z,18.37
2018-09-03T09:01:53.127Z,19.13
2018-09-03T09:04:24.046Z,17.77
2018-09-03T09:06:54.077Z,19.43
2018-09-03T09:09:24.762Z,18.17
2018-09-03T09:11:55.772Z,18.03
2018-09-03T09:14:26.436Z,19.60
2018-09-03T09:16:56.872Z,18.23
2018-09-03T09:19:27.342Z,19.40
2018-09-03T09:21:58.573Z,19.00
2018-09-03T09:24:28.974Z,19.37
2018-09-03T09:26:59.609Z,21.63
2018-09-03T09:29:30.828Z,19.70
2018-09-03T09:32:00.943Z,19.63
2018-09-03T09:34:31.551Z,19.30
2018-09-03T09:37:01.660Z,16.83
2018-09-03T09:39:32.247Z,16.93
2018-09-03T09:42:03.005Z,17.93
2018-09-03T09:44:33.542Z,21.33
2018-09-03T09:47:03.632Z,18.93
2018-09-03T09:49:34.821Z,18.43
2018-09-03T09:52:05.232Z,20.60
2018-09-03T09:54:35.647Z,22.03
2018-09-03T09:57:06.488Z,19.33
2018-09-03T09:59:36.980Z,19.90
2018-09-03T10:02:08.031Z,20.93
2018-09-03T10:04:38.991Z,20.63
2018-09-03T10:07:10.024Z,20.67
2018-09-03T10:09:40.401Z,19.97
2018-09-03T10:12:10.457Z,20.50
2018-09-03T10:14:41.170Z,22.27
2018-09-03T10:17:11.196Z,21.43
2018-09-03T10:19:41.268Z,21.07
2018-09-03T10:22:11.367Z,21.40
2018-09-03T10:24:42.576Z,21.30
2018-09-03T10:27:13.488Z,22.07
2018-09-03T10:29:43.966Z,20.93
2018-09-03T10:32:14.710Z,20.70
2018-09-03T10:34:45.737Z,22.30
2018-09-03T10:37:16.554Z,20.87
2018-09-03T10:39:47.106Z,19.63
2018-09-03T10:42:21.238Z,24.80
2018-09-03T10:44:51.641Z,20.13
2018-09-03T10:47:22.849Z,20.60
2018-09-03T10:49:53.304Z,20.27
2018-09-03T10:52:23.401Z,22.23
2018-09-03T10:54:53.546Z,21.60
2018-09-03T10:57:24.580Z,21.03
2018-09-03T10:59:54.908Z,23.67
2018-09-03T11:02:25.762Z,21.03
2018-09-03T11:04:56.798Z,21.23
2018-09-03T11:07:26.888Z,21.57
2018-09-03T11:09:57.931Z,19.73
2018-09-03T11:12:28.457Z,23.70
2018-09-03T11:14:58.902Z,21.40
2018-09-03T11:17:29.031Z,18.90
2018-09-03T11:20:02.101Z,17.87
2018-09-03T11:22:32.299Z,19.30
2018-09-03T11:25:02.788Z,18.93
2018-09-03T11:27:33.255Z,18.37
2018-09-03T11:30:04.590Z,21.10
2018-09-03T11:32:34.687Z,21.83
2018-09-03T11:35:04.797Z,19.07
2018-09-03T11:37:35.565Z,22.10
2018-09-03T11:40:06.373Z,17.50
2018-09-03T11:42:36.956Z,16.53
2018-09-03T11:45:07.408Z,17.10
2018-09-03T11:47:38.132Z,18.10
2018-09-03T11:50:08.949Z,16.90
2018-09-03T11:52:39.827Z,16.97
2018-09-03T11:55:09.975Z,16.30
2018-09-03T11:57:40.090Z,17.10
2018-09-03T12:00:13.924Z,14.30
2018-09-03T12:02:44.386Z,15.20
2018-09-03T12:05:15.045Z,14.70
2018-09-03T12:07:45.225Z,15.03
2018-09-03T12:10:15.253Z,13.80
2018-09-03T12:12:45.863Z,13.93
2018-09-03T12:16:21.243Z,15.67
2018-09-03T12:18:52.877Z,14.30
2018-09-03T12:21:23.178Z,12.93
2018-09-03T12:23:53.303Z,12.80
2018-09-03T12:26:23.409Z,12.90
2018-09-03T12:28:53.415Z,12.90
2018-09-03T12:31:24.077Z,14.47
2018-09-03T12:33:54.931Z,13.00
2018-09-03T12:36:25.282Z,13.67
2018-09-03T12:38:55.940Z,14.13
2018-09-03T12:41:26.166Z,12.67
2018-09-03T12:43:56.230Z,11.53
2018-09-03T12:46:26.816Z,11.13
2018-09-03T12:48:57.231Z,12.20
2018-09-03T12:51:28.311Z,17.57
2018-09-03T12:53:58.487Z,11.40
2018-09-03T12:56:28.706Z,12.97
2018-09-03T12:58:58.874Z,11.47
2018-09-03T13:01:28.910Z,11.90
2018-09-03T13:03:59.359Z,11.67
2018-09-03T13:06:29.900Z,11.90
2018-09-03T13:08:59.916Z,11.47
2018-09-03T13:11:30.746Z,11.30
2018-09-03T13:14:01.117Z,9.87
2018-09-03T13:16:31.806Z,9.90
2018-09-03T13:19:01.947Z,10.50
2018-09-03T13:21:32.726Z,9.87
2018-09-03T13:24:03.101Z,11.00
2018-09-03T13:26:33.323Z,9.87
2018-09-03T13:29:03.813Z,10.47
2018-09-03T13:31:33.872Z,9.80
2018-09-03T13:34:04.994Z,9.80
2018-09-03T13:36:35.122Z,10.67
2018-09-03T13:39:07.282Z,11.60
2018-09-03T13:41:37.865Z,10.63
2018-09-03T13:44:08.312Z,9.47
2018-09-03T13:46:38.966Z,10.27
2018-09-03T13:49:09.978Z,10.37
2018-09-03T13:51:40.061Z,10.83
2018-09-03T13:54:10.090Z,10.90
2018-09-03T13:56:40.686Z,11.53
2018-09-03T13:59:10.879Z,11.63
2018-09-03T14:01:40.954Z,10.43
2018-09-03T14:04:11.120Z,11.17
2018-09-03T14:06:42.098Z,10.20
2018-09-03T14:09:12.700Z,9.13
2018-09-03T14:11:43.473Z,10.03
2018-09-03T14:14:13.568Z,10.13
2018-09-03T14:16:44.289Z,9.33
2018-09-03T14:19:15.031Z,10.03
2018-09-03T14:21:46.243Z,9.13
2018-09-03T14:24:16.705Z,9.23
2018-09-03T14:26:46.986Z,10.30
2018-09-03T14:29:17.877Z,8.37
2018-09-03T14:31:48.898Z,8.00
2018-09-03T14:34:19.246Z,8.67
2018-09-03T14:36:49.413Z,8.43
2018-09-03T14:39:19.414Z,9.17
2018-09-03T14:41:49.999Z,8.30
2018-09-03T14:44:20.091Z,7.80
2018-09-03T14:46:50.599Z,8.20
2018-09-03T14:49:21.120Z,8.50
2018-09-03T14:51:52.614Z,8.97
2018-09-03T14:54:23.380Z,8.37
2018-09-03T14:56:54.410Z,9.30
2018-09-03T14:59:24.483Z,8.17
2018-09-03T15:01:54.456Z,8.33
2018-09-03T15:04:25.273Z,8.27
2018-09-03T15:06:56.101Z,8.30
2018-09-03T15:09:26.178Z,8.37
2018-09-03T15:11:56.248Z,8.37
2018-09-03T15:14:26.321Z,7.87
2018-09-03T15:16:56.515Z,8.10
2018-09-03T15:19:26.938Z,8.13
2018-09-03T15:21:57.063Z,8.40
2018-09-03T15:24:27.215Z,7.37
2018-09-03T15:26:57.951Z,6.93
2018-09-03T15:29:28.529Z,6.87
2018-09-03T15:31:59.217Z,6.57
2018-09-03T15:34:29.480Z,7.50
2018-09-03T15:36:59.767Z,7.77
2018-09-03T15:39:30.016Z,6.57
2018-09-03T15:42:00.195Z,6.97
2018-09-03T15:44:30.440Z,7.10
2018-09-03T15:47:00.445Z,7.10
2018-09-03T15:49:30.522Z,6.17
2018-09-03T15:52:00.990Z,6.70
2018-09-03T15:54:30.966Z,8.90
2018-09-03T15:57:01.060Z,6.90
2018-09-03T15:59:31.179Z,6.57
2018-09-03T16:02:01.587Z,6.27
2018-09-03T16:04:31.628Z,7.23
2018-09-03T16:07:01.702Z,7.70
2018-09-03T16:09:32.149Z,6.40
2018-09-03T16:12:02.321Z,7.17
2018-09-03T16:14:32.797Z,6.93
2018-09-03T16:17:03.393Z,6.27
2018-09-03T16:19:34.495Z,6.33
2018-09-03T16:22:04.668Z,6.07
2018-09-03T16:24:34.913Z,6.67
2018-09-03T16:27:05.181Z,6.23
2018-09-03T16:29:35.165Z,6.17
2018-09-03T16:32:05.203Z,6.00
2018-09-03T16:34:35.312Z,6.23
2018-09-03T16:37:06.887Z,6.50
2018-09-03T16:39:37.672Z,6.03
2018-09-03T16:42:08.411Z,6.20
2018-09-03T16:44:38.351Z,6.50
2018-09-03T16:47:08.549Z,6.07
2018-09-03T16:49:39.998Z,6.00
2018-09-03T16:52:10.557Z,5.93
2018-09-03T16:54:41.389Z,6.37
2018-09-03T16:57:12.097Z,5.80
2018-09-03T16:59:42.929Z,6.30
2018-09-03T17:02:12.989Z,5.97
2018-09-03T17:04:43.535Z,6.43
2018-09-03T17:07:14.717Z,7.20
2018-09-03T17:09:45.298Z,6.00
2018-09-03T17:12:15.921Z,6.27
2018-09-03T17:14:46.271Z,6.10
2018-09-03T17:17:16.824Z,6.10
2018-09-03T17:19:47.037Z,6.30
2018-09-03T17:22:17.078Z,6.90
2018-09-03T17:24:47.195Z,6.60
2018-09-03T17:27:17.351Z,7.97
2018-09-03T17:29:47.540Z,6.23
2018-09-03T17:32:18.171Z,6.70
2018-09-03T17:34:48.711Z,6.30
2018-09-03T17:37:18.807Z,6.30
2018-09-03T17:39:49.343Z,7.27
2018-09-03T17:42:19.326Z,6.80
2018-09-03T17:44:49.784Z,6.73
2018-09-03T17:47:20.643Z,6.73
2018-09-03T17:49:50.821Z,6.33
2018-09-03T17:52:20.795Z,6.10
2018-09-03T17:54:51.417Z,6.40
2018-09-03T17:57:21.504Z,7.60
2018-09-03T17:59:51.468Z,6.87
2018-09-03T18:02:21.946Z,8.17
2018-09-03T18:04:52.373Z,7.20
2018-09-03T18:07:23.034Z,6.87
2018-09-03T18:09:53.594Z,7.00
2018-09-03T18:12:23.770Z,6.80
2018-09-03T18:14:53.853Z,6.70
2018-09-03T18:17:24.890Z,6.87
2018-09-03T18:19:54.953Z,7.17
2018-09-03T18:22:25.505Z,6.77
2018-09-03T18:24:55.612Z,7.10
2018-09-03T18:27:26.022Z,7.17
2018-09-03T18:29:56.144Z,7.07
2018-09-03T18:32:26.513Z,7.10
2018-09-03T18:34:57.268Z,7.33
2018-09-03T18:37:27.333Z,8.13
2018-09-03T18:39:57.333Z,7.07
2018-09-03T18:42:27.583Z,8.90
2018-09-03T18:44:58.072Z,7.13
2018-09-03T18:47:28.111Z,7.57
2018-09-03T18:49:58.930Z,8.13
2018-09-03T18:52:29.082Z,8.87
2018-09-03T18:54:59.507Z,8.80
2018-09-03T18:57:30.330Z,8.93
2018-09-03T19:00:00.889Z,8.73
2018-09-03T19:02:31.365Z,8.50
2018-09-03T19:05:01.808Z,8.83
2018-09-03T19:07:31.956Z,9.80
2018-09-03T19:10:02.091Z,9.93
2018-09-03T19:12:32.289Z,9.30
2018-09-03T19:15:03.226Z,8.33
2018-09-03T19:17:33.506Z,8.93
2018-09-03T19:20:04.629Z,9.20
2018-09-03T19:22:34.771Z,10.00
2018-09-03T19:25:05.496Z,9.70
2018-09-03T19:27:36.509Z,11.60
2018-09-03T19:30:06.680Z,10.33
2018-09-03T19:32:36.993Z,9.73
2018-09-03T19:35:07.696Z,10.13
2018-09-03T19:37:38.566Z,12.00
2018-09-03T19:40:09.703Z,12.97
2018-09-03T19:42:39.704Z,11.53
2018-09-03T19:45:09.761Z,12.20
2018-09-03T19:47:40.838Z,11.93
2018-09-03T19:50:11.413Z,11.50
2018-09-03T19:52:41.938Z,14.37
2018-09-03T19:55:11.984Z,12.33
2018-09-03T19:57:43.007Z,13.47
2018-09-03T20:00:13.205Z,13.23
2018-09-03T20:02:43.381Z,14.17
2018-09-03T20:05:13.613Z,14.00
2018-09-03T20:07:44.258Z,12.03
2018-09-03T20:10:14.410Z,11.93
2018-09-03T20:12:45.054Z,13.37
2018-09-03T20:15:19.878Z,14.17
2018-09-03T20:17:51.549Z,11.83
2018-09-03T20:20:21.888Z,13.97
2018-09-03T20:22:52.047Z,13.80
2018-09-03T20:25:22.284Z,13.53
2018-09-03T20:27:52.710Z,13.60
2018-09-03T20:30:23.011Z,14.37
2018-09-03T20:32:53.173Z,12.50
2018-09-03T20:35:23.527Z,13.20
2018-09-03T20:37:53.732Z,13.13
2018-09-03T20:40:23.973Z,13.13
2018-09-03T20:42:54.440Z,12.77
2018-09-03T20:45:24.541Z,11.83
2018-09-03T20:47:54.612Z,12.30
2018-09-03T20:50:24.725Z,11.27
2018-09-03T20:52:55.049Z,10.90
2018-09-03T20:55:25.159Z,12.10
2018-09-03T20:57:55.259Z,12.47
2018-09-03T21:00:25.354Z,11.53
2018-09-03T21:02:55.528Z,11.73
2018-09-03T21:05:26.181Z,13.73
2018-09-03T21:07:56.798Z,11.50
2018-09-03T21:10:26.898Z,11.80
2018-09-03T21:12:57.018Z,11.70
2018-09-03T21:15:27.101Z,11.40
2018-09-03T21:17:57.121Z,11.90
2018-09-03T21:20:27.235Z,12.00
2018-09-03T21:22:57.284Z,13.03
2018-09-03T21:25:27.935Z,11.23
2018-09-03T21:27:57.959Z,12.47
2018-09-03T21:30:28.139Z,11.70
2018-09-03T21:32:58.236Z,11.33
2018-09-03T21:35:28.258Z,11.93
2018-09-03T21:37:59.259Z,10.83
2018-09-03T21:40:29.376Z,11.93
2018-09-03T21:42:59.718Z,11.43
2018-09-03T21:45:29.774Z,11.37
2018-09-03T21:48:00.021Z,11.73
2018-09-03T21:50:30.125Z,13.30
2018-09-03T21:53:00.718Z,12.23
2018-09-03T21:55:31.087Z,12.27
2018-09-03T21:58:01.226Z,11.03
2018-09-03T22:00:32.056Z,13.20
2018-09-03T22:03:02.268Z,12.20
2018-09-03T22:05:32.834Z,13.27
2018-09-03T22:08:03.112Z,14.27
2018-09-03T22:10:33.774Z,12.93
2018-09-03T22:13:04.146Z,14.97
2018-09-03T22:15:35.163Z,13.33
2018-09-03T22:18:05.624Z,14.80
2018-09-03T22:20:36.603Z,14.03
2018-09-03T22:23:07.936Z,13.27
2018-09-03T22:25:38.562Z,12.57
2018-09-03T22:28:09.161Z,13.17
2018-09-03T22:30:39.809Z,13.27
2018-09-03T22:33:10.820Z,12.00
2018-09-03T22:35:40.989Z,13.83
2018-09-03T22:38:11.590Z,12.97
2018-09-03T22:40:42.127Z,14.30
2018-09-03T22:43:12.881Z,13.07
2018-09-03T22:45:43.047Z,14.77
2018-09-03T22:48:13.596Z,14.63
2018-09-03T22:50:44.236Z,13.13
2018-09-03T22:53:14.798Z,17.60
2018-09-03T22:55:45.839Z,14.40
2018-09-03T22:58:15.958Z,16.30
2018-09-03T23:00:47.409Z,19.57
2018-09-03T23:03:18.080Z,15.90
2018-09-03T23:05:48.308Z,17.03
2018-09-03T23:08:19.004Z,18.67
2018-09-03T23:10:49.525Z,16.67
2018-09-03T23:13:19.597Z,18.67
2018-09-03T23:15:51.543Z,18.47
2018-09-03T23:18:23.503Z,18.87
2018-09-03T23:20:53.515Z,18.20
2018-09-03T23:23:23.619Z,17.20
2018-09-03T23:25:54.124Z,18.50
2018-09-03T23:28:24.562Z,18.00
2018-09-03T23:30:54.695Z,17.40
2018-09-03T23:33:24.829Z,18.80
2018-09-03T23:35:54.907Z,17.87
2018-09-03T23:38:25.048Z,17.90
2018-09-03T23:40:55.497Z,16.67
2018-09-03T23:43:25.627Z,16.57
2018-09-03T23:45:56.151Z,19.93
2018-09-03T23:48:26.741Z,19.27
2018-09-03T23:50:57.989Z,15.97
2018-09-03T23:53:29.109Z,18.63
2018-09-03T23:55:59.975Z,20.27
2018-09-03T23:58:30.132Z,19.67
